Time;durP1;ratioP1;P1;durP2;ratioP2;P2;SDS_P1;SDS_P2;PMS_P1;PMS_P2;Temp;Humidity;BMP_temperature;BMP_pressure;BME280_temperature;BME280_humidity;BME280_pressure;Samples;Min_cycle;Max_cycle;Signal;HPM_P1;HPM_P2
2022/01/21 03:48:36;;;;;;;;;;;;;;;5.19;100.00;101179.44;4946952;29;19931;-84
2022/01/21 03:51:02;;;;;;;;;;;;;;;5.21;100.00;101182.94;4954960;28;19926;-85
2022/01/21 03:53:27;;;;;;;;;;;;;;;5.23;100.00;101174.19;4955868;28;19925;-85
2022/01/21 03:55:52;;;;;;;;;;;;;;;5.06;100.00;101184.69;4956896;29;19922;-85
2022/01/21 03:58:18;;;;;;;;;;;;;;;4.13;100.00;101193.94;4956916;29;20314;-85
2022/01/21 04:00:47;;;;;;;;;;;;;;;3.71;100.00;101199.75;4956960;28;19929;-85
2022/01/21 04:03:12;;;;;;;;;;;;;;;3.53;100.00;101201.34;4955595;28;19919;-85
2022/01/21 04:05:38;;;;;;;;;;;;;;;3.45;99.43;101210.91;4956640;28;20386;-85
2022/01/21 04:08:04;;;;;;;;;;;;;;;3.33;98.45;101205.53;4956858;29;19977;-85
2022/01/21 04:10:30;;;;;;;;;;;;;;;3.23;97.64;101204.56;4956488;28;19915;-84
2022/01/21 04:12:55;;;;;;;;;;;;;;;3.16;97.27;101210.59;4956855;29;20373;-85
2022/01/21 04:15:22;;;;;;;;;;;;;;;3.07;96.84;101211.41;4956908;28;19922;-85
2022/01/21 04:17:47;;;;;;;;;;;;;;;2.99;96.40;101211.31;4955311;28;20337;-85
2022/01/21 04:20:13;;;;;;;;;;;;;;;2.95;96.19;101219.97;4956910;28;19919;-85
2022/01/21 04:22:38;;;;;;;;;;;;;;;2.85;96.15;101211.16;4955311;28;20018;-84
2022/01/21 04:25:05;;;;;;;;;;;;;;;2.86;95.84;101214.66;4956462;28;19923;-84
2022/01/21 04:27:30;;;;;;;;;;;;;;;2.73;95.50;101211.91;4956315;29;19918;-84
2022/01/21 04:29:55;;;;;;;;;;;;;;;2.72;95.33;101209.25;4956407;29;20362;-84
2022/01/21 04:32:21;;;;;;;;;;;;;;;2.68;95.11;101218.81;4955051;28;19919;-83
2022/01/21 04:34:46;;;;;;;;;;;;;;;2.63;94.96;101214.38;4956365;29;19918;-83
2022/01/21 04:37:13;;;;;;;;;;;;;;;2.56;94.82;101217.78;4955923;28;19918;-83
2022/01/21 04:39:58;;;;;;;;;;;;;;;2.49;94.42;101219.41;4956113;28;19922;-85
2022/01/21 04:47:35;;;;;;;;;;;;;;;2.41;93.42;101226.28;4953557;28;20017;-84
2022/01/21 04:50:01;;;;;;;;;;;;;;;2.33;93.09;101231.41;4955386;29;19948;-85
2022/01/21 04:52:26;;;;;;;;;;;;;;;2.25;92.80;101228.72;4955891;29;20551;-84
2022/01/21 04:54:52;;;;;;;;;;;;;;;2.23;92.56;101225.19;4955833;28;19924;-85
2022/01/21 04:57:18;;;;;;;;;;;;;;;2.15;92.45;101229.44;4955799;28;20365;-86
2022/01/21 04:59:43;;;;;;;;;;;;;;;2.12;91.97;101235.50;4955469;29;20330;-85
2022/01/21 05:02:09;;;;;;;;;;;;;;;2.09;91.65;101231.94;4954488;29;19974;-83
2022/01/21 05:04:34;;;;;;;;;;;;;;;2.03;91.62;101234.47;4955632;28;20416;-84
2022/01/21 05:07:02;;;;;;;;;;;;;;;2.03;91.14;101237.06;4955749;28;19919;-84
2022/01/21 05:09:32;;;;;;;;;;;;;;;1.95;90.91;101230.00;4955034;28;20385;-85
2022/01/21 05:11:58;;;;;;;;;;;;;;;1.93;90.57;101236.06;4954978;29;20434;-85
2022/01/21 05:14:38;;;;;;;;;;;;;;;1.93;90.41;101236.97;4955353;28;19929;-85
2022/01/21 05:17:05;;;;;;;;;;;;;;;1.84;90.16;101235.94;4954138;28;19925;-84
2022/01/21 05:19:30;;;;;;;;;;;;;;;1.85;89.88;101237.69;4955417;28;20264;-83
2022/01/21 05:21:56;;;;;;;;;;;;;;;1.83;90.11;101242.88;4955519;28;19973;-84
2022/01/21 05:24:21;;;;;;;;;;;;;;;1.84;90.66;101242.03;4955429;28;19922;-84
2022/01/21 05:26:54;;;;;;;;;;;;;;;1.84;91.03;101247.25;4955219;28;20013;-84
2022/01/21 05:29:21;;;;;;;;;;;;;;;1.81;91.23;101236.75;4954731;29;19929;-84
2022/01/21 05:31:46;;;;;;;;;;;;;;;1.81;91.23;101244.59;4953794;28;20024;-85
2022/01/21 05:34:12;;;;;;;;;;;;;;;1.75;91.25;101236.66;4955234;29;19986;-85
2022/01/21 05:36:40;;;;;;;;;;;;;;;1.74;91.13;101235.78;4955188;28;19918;-85
2022/01/21 05:39:06;;;;;;;;;;;;;;;1.69;90.92;101247.00;4937700;29;19925;-84
2022/01/21 05:41:31;;;;;;;;;;;;;;;1.64;90.47;101254.75;4955342;28;19926;-85
2022/01/21 05:44:12;;;;;;;;;;;;;;;1.63;90.36;101273.94;4953454;28;19918;-85
2022/01/21 05:49:06;;;;;;;;;;;;;;;1.55;90.07;101275.53;4954926;28;19926;-85
2022/01/21 05:51:31;;;;;;;;;;;;;;;1.55;89.84;101271.19;4954956;28;19978;-85
2022/01/21 05:53:56;;;;;;;;;;;;;;;1.50;89.52;101266.69;4954887;28;19918;-86
2022/01/21 05:56:24;;;;;;;;;;;;;;;1.49;89.25;101264.97;4954072;29;19969;-85
2022/01/21 08:46:35;;;;;;;;;;;;;;;0.75;81.61;101362.69;4983511;28;19951;-92
2022/01/21 08:49:07;;;;;;;;;;;;;;;0.69;81.57;101373.88;4968913;28;20376;-92
2022/01/21 08:51:39;;;;;;;;;;;;;;;0.74;81.64;101382.69;4984948;28;19995;-90
2022/01/21 08:54:04;;;;;;;;;;;;;;;0.74;81.52;101373.97;4968429;28;19984;-94
2022/01/21 08:56:29;;;;;;;;;;;;;;;0.74;81.42;101374.84;4968784;28;19965;-90
2022/01/21 08:58:55;;;;;;;;;;;;;;;0.71;81.21;101380.88;4982530;28;20266;-90
2022/01/21 09:01:20;;;;;;;;;;;;;;;0.74;81.02;101377.47;4984946;28;19914;-89
2022/01/21 09:03:46;;;;;;;;;;;;;;;0.73;80.83;101380.91;4967029;28;20368;-92
2022/01/21 09:06:18;;;;;;;;;;;;;;;0.76;80.80;101383.59;4985611;28;19918;-94
2022/01/21 09:08:45;;;;;;;;;;;;;;;0.76;80.57;101393.16;4984818;28;19918;-89
2022/01/21 09:11:11;;;;;;;;;;;;;;;0.76;80.50;101388.81;4984067;28;20288;-89
2022/01/21 09:13:40;;;;;;;;;;;;;;;0.78;80.27;101381.88;4983969;28;19922;-92
2022/01/21 09:16:06;;;;;;;;;;;;;;;0.82;80.16;101381.13;4968124;28;20021;-92
2022/01/21 09:18:45;;;;;;;;;;;;;;;0.80;79.94;101382.81;4968699;28;20045;-91
2022/01/21 09:21:11;;;;;;;;;;;;;;;0.81;79.99;101374.13;4985229;28;19953;-92
2022/01/21 09:23:36;;;;;;;;;;;;;;;0.84;79.83;101382.03;4967045;28;20435;-89
2022/01/21 09:26:02;;;;;;;;;;;;;;;0.85;79.76;101381.19;4968268;28;19974;-88
2022/01/21 09:28:27;;;;;;;;;;;;;;;0.84;79.49;101383.78;4982920;28;19921;-89
2022/01/21 09:30:52;;;;;;;;;;;;;;;0.87;79.40;101382.09;4984718;28;19921;-91
2022/01/21 09:33:18;;;;;;;;;;;;;;;0.89;79.40;101372.59;4968578;28;19922;-92
2022/01/21 09:35:43;;;;;;;;;;;;;;;0.92;79.45;101374.38;4984988;28;19918;-95
2022/01/21 09:38:08;;;;;;;;;;;;;;;0.94;79.35;101369.19;4983823;28;19949;-94
2022/01/21 09:40:38;;;;;;;;;;;;;;;0.94;79.25;101379.63;4967264;28;19918;-92
2022/01/21 09:43:05;;;;;;;;;;;;;;;0.99;79.37;101391.03;4966892;28;20005;-90
2022/01/21 09:45:30;;;;;;;;;;;;;;;0.93;79.19;101391.81;4992155;28;19928;-89
2022/01/21 09:47:59;;;;;;;;;;;;;;;0.94;79.08;101400.50;4983002;28;19948;-93
2022/01/21 09:50:24;;;;;;;;;;;;;;;0.96;78.80;101398.81;4984478;28;20358;-93
2022/01/21 09:52:51;;;;;;;;;;;;;;;0.94;78.64;101401.38;4983216;28;19918;-89
2022/01/21 09:55:17;;;;;;;;;;;;;;;0.98;78.70;101397.13;4983031;28;19919;-92
2022/01/21 09:57:46;;;;;;;;;;;;;;;0.95;78.32;101403.16;4984698;28;19985;-92
2022/01/21 10:00:11;;;;;;;;;;;;;;;1.00;78.07;101406.75;4981446;28;19925;-92
2022/01/21 10:02:37;;;;;;;;;;;;;;;1.00;78.13;101403.25;4983095;28;20001;-91
2022/01/21 10:05:03;;;;;;;;;;;;;;;0.99;77.97;101401.50;4984153;28;19922;-90
2022/01/21 10:07:30;;;;;;;;;;;;;;;1.00;77.91;101400.66;5000142;28;19925;-91
2022/01/21 10:09:57;;;;;;;;;;;;;;;0.99;77.93;101394.56;4985491;28;19922;-95
2022/01/21 10:12:23;;;;;;;;;;;;;;;1.04;77.71;101397.28;4983867;28;19925;-92
2022/01/21 10:14:48;;;;;;;;;;;;;;;1.03;77.85;101390.28;4997904;28;19989;-92
2022/01/21 10:17:14;;;;;;;;;;;;;;;1.06;77.59;101393.81;4983830;28;19973;-89
2022/01/21 10:19:39;;;;;;;;;;;;;;;1.05;77.59;101393.78;4983641;28;19926;-89
2022/01/21 10:22:08;;;;;;;;;;;;;;;1.05;77.40;101394.69;4983203;28;19918;-90
2022/01/21 10:24:34;;;;;;;;;;;;;;;1.06;77.33;101395.56;4982308;28;19984;-90
2022/01/21 10:27:00;;;;;;;;;;;;;;;1.04;76.92;101397.28;5005445;28;19957;-89
2022/01/21 10:29:39;;;;;;;;;;;;;;;1.02;77.12;101399.84;4982164;28;20337;-89
2022/01/21 10:32:06;;;;;;;;;;;;;;;1.02;76.90;101394.63;4983549;28;20393;-89
2022/01/21 10:34:43;;;;;;;;;;;;;;;1.03;76.86;101393.75;4982593;28;19922;-91
2022/01/21 10:37:22;;;;;;;;;;;;;;;1.05;76.89;101397.31;5007669;28;19924;-94
2022/01/21 10:40:08;;;;;;;;;;;;;;;1.13;76.95;101401.81;4984299;28;19925;-94
2022/01/21 10:42:33;;;;;;;;;;;;;;;1.14;76.80;101409.66;4983186;28;19922;-92
2022/01/21 10:44:59;;;;;;;;;;;;;;;1.11;76.57;101401.75;4981192;28;20381;-93
2022/01/21 10:47:29;;;;;;;;;;;;;;;1.12;76.63;101405.25;4965687;28;20348;-89
2022/01/21 10:50:14;;;;;;;;;;;;;;;1.13;76.55;101391.34;4966857;28;19918;-89
2022/01/21 10:52:44;;;;;;;;;;;;;;;1.12;76.37;101398.31;4968345;28;19921;-91
2022/01/21 10:55:26;;;;;;;;;;;;;;;1.15;76.23;101390.56;4983088;28;19933;-92
2022/01/21 10:58:08;;;;;;;;;;;;;;;1.16;76.08;101386.19;4966449;28;19919;-92
2022/01/21 11:00:33;;;;;;;;;;;;;;;1.16;76.05;101380.97;4989765;28;19957;-89
2022/01/21 11:03:08;;;;;;;;;;;;;;;1.20;76.11;101385.44;4967197;28;19984;-90
2022/01/21 11:05:38;;;;;;;;;;;;;;;1.21;75.78;101380.25;4973041;28;19917;-91
2022/01/21 11:08:05;;;;;;;;;;;;;;;1.21;75.91;101377.63;4982459;28;19976;-92
2022/01/21 11:10:37;;;;;;;;;;;;;;;1.20;75.78;101373.25;4982904;28;20021;-93
2022/01/21 11:13:12;;;;;;;;;;;;;;;1.22;75.49;101379.38;4964556;28;19918;-92
2022/01/21 11:15:41;;;;;;;;;;;;;;;1.29;75.49;101376.88;4973088;28;19917;-90
2022/01/21 11:18:09;;;;;;;;;;;;;;;1.25;75.38;101374.22;4982816;28;19925;-89
2022/01/21 11:20:37;;;;;;;;;;;;;;;1.24;75.37;101376.78;4982213;28;19984;-92
2022/01/21 11:23:02;;;;;;;;;;;;;;;1.29;75.25;101374.28;4974048;28;20365;-91
2022/01/21 11:25:43;;;;;;;;;;;;;;;1.27;75.18;101369.88;4983139;28;19924;-89
2022/01/21 11:28:11;;;;;;;;;;;;;;;1.26;74.82;101375.97;4981592;28;19922;-89
2022/01/21 11:30:37;;;;;;;;;;;;;;;1.30;74.94;101368.22;4965251;28;20392;-89
2022/01/21 11:33:02;;;;;;;;;;;;;;;1.31;74.82;101370.84;4982723;28;19918;-88
2022/01/21 11:35:31;;;;;;;;;;;;;;;1.32;74.53;101366.50;4965382;28;19918;-92
2022/01/21 11:37:57;;;;;;;;;;;;;;;1.34;74.53;101354.34;4982998;28;19930;-90
2022/01/21 11:40:22;;;;;;;;;;;;;;;1.34;74.21;101354.34;4965883;28;19914;-93
2022/01/21 11:42:49;;;;;;;;;;;;;;;1.32;74.14;101361.28;4965416;28;19929;-89
2022/01/21 11:50:46;;;;;;;;;;;;;;;1.35;74.08;101350.91;4982215;28;19921;-91
2022/01/21 11:53:12;;;;;;;;;;;;;;;1.39;74.00;101353.59;4982465;28;19919;-93
2022/01/21 11:55:41;;;;;;;;;;;;;;;1.40;74.07;101355.34;4982842;28;20020;-93
2022/01/21 11:58:11;;;;;;;;;;;;;;;1.37;73.96;101355.31;4982723;28;19918;-89
2022/01/21 12:00:36;;;;;;;;;;;;;;;1.40;73.83;101349.25;4987225;28;19918;-89
2022/01/21 12:03:02;;;;;;;;;;;;;;;1.43;73.92;101354.53;4987095;28;20022;-92
2022/01/21 12:05:28;;;;;;;;;;;;;;;1.41;73.84;101353.63;4986610;28;19918;-92
2022/01/21 12:07:53;;;;;;;;;;;;;;;1.38;73.74;101353.56;5000980;28;19922;-91
2022/01/21 12:10:22;;;;;;;;;;;;;;;1.42;73.52;101352.75;4985221;28;19945;-89
2022/01/21 12:15:34;;;;;;;;;;;;;;;1.43;73.49;101338.88;4985270;28;20013;-90
2022/01/21 12:20:55;;;;;;;;;;;;;;;1.47;74.10;101340.69;4985480;28;19929;-91
2022/01/21 12:23:25;;;;;;;;;;;;;;;1.49;73.74;101333.75;4986098;28;19922;-89
2022/01/21 12:26:09;;;;;;;;;;;;;;;1.49;73.65;101331.16;4984207;28;19922;-90
2022/01/21 12:28:45;;;;;;;;;;;;;;;1.47;73.50;101335.47;4984130;28;19960;-89
2022/01/21 12:31:12;;;;;;;;;;;;;;;1.49;73.39;101323.31;5008014;28;19937;-92
2022/01/21 12:34:04;;;;;;;;;;;;;;;1.49;73.50;101323.31;5001102;28;20254;-89
2022/01/21 12:36:33;;;;;;;;;;;;;;;1.53;73.23;101319.91;4999857;28;19924;-89
2022/01/21 12:41:23;;;;;;;;;;;;;;;1.54;73.18;101308.59;4985075;28;19932;-90
2022/01/21 12:43:55;;;;;;;;;;;;;;;1.55;73.09;101312.97;4983048;28;19925;-89
2022/01/21 12:46:23;;;;;;;;;;;;;;;1.55;72.91;101301.66;4984887;28;19922;-90
2022/01/21 12:48:49;;;;;;;;;;;;;;;1.57;72.92;101316.50;4986088;28;19922;-91
2022/01/21 12:56:43;;;;;;;;;;;;;;;2.31;80.84;101291.59;4985015;28;19924;-93
2022/01/21 12:59:14;;;;;;;;;;;;;;;2.37;82.59;101290.78;4966370;28;19918;-90
2022/01/21 13:01:39;;;;;;;;;;;;;;;2.41;84.29;101286.47;4985505;28;19922;-90
2022/01/21 13:04:16;;;;;;;;;;;;;;;2.42;85.70;101285.63;4984704;28;19973;-88
2022/01/21 13:06:48;;;;;;;;;;;;;;;2.42;87.11;101291.72;4984472;28;19918;-91
2022/01/21 13:09:18;;;;;;;;;;;;;;;2.44;88.42;101292.66;4966851;28;20343;-88
2022/01/21 13:11:52;;;;;;;;;;;;;;;2.48;89.61;101280.47;4984934;28;19922;-90
2022/01/21 13:17:05;;;;;;;;;;;;;;;2.50;91.66;101284.84;4985143;28;19917;-93
2022/01/21 13:19:42;;;;;;;;;;;;;;;2.50;92.71;101276.13;4967058;28;19918;-92
2022/01/21 13:22:17;;;;;;;;;;;;;;;2.50;94.18;101268.28;4984889;28;19918;-91
2022/01/21 13:24:56;;;;;;;;;;;;;;;2.51;95.69;101275.28;4984144;28;19997;-90
2022/01/21 13:27:22;;;;;;;;;;;;;;;2.56;97.38;101271.00;4966547;28;19918;-94
2022/01/21 13:29:47;;;;;;;;;;;;;;;2.71;99.33;101265.97;4983037;28;19922;-90
2022/01/21 13:32:13;;;;;;;;;;;;;;;2.93;100.00;101275.84;4984810;28;20330;-91
2022/01/21 13:34:41;;;;;;;;;;;;;;;3.09;100.00;101272.53;4967160;28;20130;-90
2022/01/21 13:37:08;;;;;;;;;;;;;;;3.22;100.00;101268.31;4966716;28;20015;-90
2022/01/21 13:39:35;;;;;;;;;;;;;;;3.33;100.00;101271.03;4966551;28;19942;-91
2022/01/21 13:42:12;;;;;;;;;;;;;;;3.39;100.00;101261.50;4984428;28;19925;-92
2022/01/21 13:44:38;;;;;;;;;;;;;;;3.45;100.00;101263.31;4965148;28;20012;-89
2022/01/21 13:47:05;;;;;;;;;;;;;;;3.54;100.00;101265.13;4983837;28;20016;-90
2022/01/21 13:49:30;;;;;;;;;;;;;;;3.59;100.00;101260.81;4966632;28;19925;-87
2022/01/21 13:51:57;;;;;;;;;;;;;;;3.67;100.00;101268.75;4966927;28;19970;-87
2022/01/21 13:54:42;;;;;;;;;;;;;;;3.72;100.00;101269.66;4984791;28;19918;-87
2022/01/21 13:57:08;;;;;;;;;;;;;;;3.78;100.00;101269.72;4967461;28;19924;-87
2022/01/21 13:59:39;;;;;;;;;;;;;;;3.85;100.00;101275.91;4980605;28;20009;-89
2022/01/21 14:02:06;;;;;;;;;;;;;;;3.89;100.00;101275.06;4966264;28;19929;-87
2022/01/21 14:04:32;;;;;;;;;;;;;;;3.93;100.00;101277.72;4974549;28;19918;-87
2022/01/21 14:06:57;;;;;;;;;;;;;;;3.98;100.00;101275.13;4965289;28;20397;-90
2022/01/21 14:09:23;;;;;;;;;;;;;;;4.04;100.00;101279.53;4984450;28;19921;-88
2022/01/21 14:11:48;;;;;;;;;;;;;;;4.08;100.00;101286.56;4966982;28;19918;-88
2022/01/21 14:14:15;;;;;;;;;;;;;;;4.11;100.00;101290.09;4964578;28;19972;-89
2022/01/21 14:16:46;;;;;;;;;;;;;;;4.16;100.00;101288.41;4983626;28;20020;-89
2022/01/21 14:19:15;;;;;;;;;;;;;;;4.21;100.00;101293.66;4983408;28;19979;-89
2022/01/21 14:21:42;;;;;;;;;;;;;;;4.24;100.00;101300.69;4964707;28;19918;-87
2022/01/21 14:24:18;;;;;;;;;;;;;;;4.27;100.00;101295.47;4973826;28;19957;-88
2022/01/21 14:26:50;;;;;;;;;;;;;;;3.94;100.00;101291.69;4966015;28;19925;-88
2022/01/21 14:29:16;;;;;;;;;;;;;;;3.12;100.00;101296.13;4982229;28;19926;-90
2022/01/21 14:31:43;;;;;;;;;;;;;;;2.88;100.00;101288.88;4965799;28;20384;-89
2022/01/21 14:34:17;;;;;;;;;;;;;;;2.72;100.00;101288.66;4982946;28;19924;-88
2022/01/21 14:36:42;;;;;;;;;;;;;;;2.63;100.00;101282.41;4983904;28;20476;-88
2022/01/21 14:39:18;;;;;;;;;;;;;;;2.51;100.00;101293.63;4965330;28;19925;-88
2022/01/21 14:41:47;;;;;;;;;;;;;;;2.45;98.89;101289.16;4965469;28;19918;-89
2022/01/21 14:44:13;;;;;;;;;;;;;;;2.39;97.72;101296.03;4980680;28;19925;-88
2022/01/21 14:46:39;;;;;;;;;;;;;;;2.29;96.86;101289.78;4998468;28;19922;-89
2022/01/21 14:49:05;;;;;;;;;;;;;;;2.29;95.93;101295.03;4981776;28;19968;-89
2022/01/21 14:51:35;;;;;;;;;;;;;;;2.20;95.05;101298.38;4982935;28;20009;-87
2022/01/21 14:54:11;;;;;;;;;;;;;;;2.19;94.37;101301.84;4982600;28;19922;-88
2022/01/21 14:56:36;;;;;;;;;;;;;;;2.10;93.51;101305.19;4983402;28;19961;-88
2022/01/21 14:59:09;;;;;;;;;;;;;;;1.96;92.68;101299.75;4980152;28;19965;-89
2022/01/21 15:01:34;;;;;;;;;;;;;;;1.99;92.14;101299.81;4983273;28;19922;-89
2022/01/21 15:04:11;;;;;;;;;;;;;;;1.88;91.49;101303.09;4980614;28;21606;-88
2022/01/21 15:06:38;;;;;;;;;;;;;;;1.81;90.50;101297.75;4983067;28;19926;-87
2022/01/21 15:09:03;;;;;;;;;;;;;;;1.82;89.85;101303.88;4981267;28;20009;-86
2022/01/21 15:14:33;;;;;;;;;;;;;;;1.71;88.72;101308.00;4981676;28;19918;-88
2022/01/21 15:16:58;;;;;;;;;;;;;;;1.65;88.26;101306.19;4983056;28;19925;-87
2022/01/21 15:19:34;;;;;;;;;;;;;;;1.65;87.99;101314.03;4981305;28;19922;-87
2022/01/21 15:22:00;;;;;;;;;;;;;;;1.58;87.73;101314.75;4981191;28;19993;-87
2022/01/21 15:24:26;;;;;;;;;;;;;;;1.62;87.28;101314.84;4983402;28;19918;-90
2022/01/21 15:26:51;;;;;;;;;;;;;;;1.55;86.97;101323.44;5005626;28;19924;-90
2022/01/21 15:29:17;;;;;;;;;;;;;;;1.51;86.66;101326.81;4980507;28;19922;-89
2022/01/21 15:31:45;;;;;;;;;;;;;;;1.48;86.62;101325.91;4982618;28;19914;-92
2022/01/21 15:34:27;;;;;;;;;;;;;;;1.44;86.20;101331.06;4986568;28;19977;-90
2022/01/21 15:36:53;;;;;;;;;;;;;;;1.40;86.11;101329.22;4986367;28;19957;-91
2022/01/21 15:39:18;;;;;;;;;;;;;;;1.42;86.03;101332.78;4986529;28;19917;-91
2022/01/21 15:41:44;;;;;;;;;;;;;;;1.37;85.78;101333.50;4986906;28;19924;-93
2022/01/21 15:44:09;;;;;;;;;;;;;;;1.33;85.54;101339.53;4985332;28;20255;-89
2022/01/21 15:46:36;;;;;;;;;;;;;;;1.32;85.47;101332.56;4984859;28;19926;-92
2022/01/21 15:49:04;;;;;;;;;;;;;;;1.26;85.21;101343.75;4986652;28;19921;-91
2022/01/21 15:51:30;;;;;;;;;;;;;;;1.27;85.08;101338.56;4984433;28;19925;-90
2022/01/21 15:53:55;;;;;;;;;;;;;;;1.24;84.91;101335.88;4986416;28;19922;-91
2022/01/21 15:56:21;;;;;;;;;;;;;;;1.16;84.80;101333.97;4984862;28;19922;-91
2022/01/21 15:58:47;;;;;;;;;;;;;;;1.17;84.70;101341.84;4983960;28;20008;-90
2022/01/21 16:01:12;;;;;;;;;;;;;;;1.18;84.77;101338.41;4983820;28;20365;-89
2022/01/21 16:03:41;;;;;;;;;;;;;;;1.12;84.83;101338.25;4986283;28;19918;-89
2022/01/21 16:06:06;;;;;;;;;;;;;;;1.13;84.88;101333.91;4983952;28;20393;-91
2022/01/21 16:08:32;;;;;;;;;;;;;;;1.12;84.76;101329.53;4985520;28;19918;-92
2022/01/21 16:10:58;;;;;;;;;;;;;;;1.13;84.41;101324.34;4985742;28;19949;-89
2022/01/21 16:13:23;;;;;;;;;;;;;;;1.10;84.54;101313.84;4983351;28;19972;-89
2022/01/21 16:15:48;;;;;;;;;;;;;;;1.05;84.56;101308.53;4986121;28;19922;-87
2022/01/21 16:18:14;;;;;;;;;;;;;;;1.07;84.40;101316.41;4985689;28;20358;-90
2022/01/21 16:20:39;;;;;;;;;;;;;;;1.02;84.19;101307.56;4985916;28;19926;-92
2022/01/21 16:23:05;;;;;;;;;;;;;;;0.99;84.21;101304.91;4984348;28;19928;-90
2022/01/21 16:25:31;;;;;;;;;;;;;;;0.97;84.13;101302.25;4984311;28;19922;-91
2022/01/21 16:27:56;;;;;;;;;;;;;;;0.96;84.01;101303.13;4991761;28;19918;-89
2022/01/21 16:30:21;;;;;;;;;;;;;;;0.92;84.19;101298.69;4985092;28;19921;-90
2022/01/21 16:32:47;;;;;;;;;;;;;;;0.92;84.17;101301.28;4983519;28;20015;-87
2022/01/21 16:35:12;;;;;;;;;;;;;;;0.95;83.94;101300.50;4984629;28;19922;-88
2022/01/21 16:37:40;;;;;;;;;;;;;;;0.93;84.02;101302.19;4985779;28;20008;-87
2022/01/21 16:40:06;;;;;;;;;;;;;;;0.94;84.15;101309.16;4985306;28;19997;-88
2022/01/21 16:42:33;;;;;;;;;;;;;;;0.96;84.42;101317.88;4985449;28;19960;-87
2022/01/21 16:44:59;;;;;;;;;;;;;;;0.90;84.35;101316.03;4981422;28;19929;-86
2022/01/21 16:47:24;;;;;;;;;;;;;;;0.82;84.42;101315.88;4984829;28;19922;-88
2022/01/21 16:49:50;;;;;;;;;;;;;;;0.91;84.32;101317.81;4985234;28;19933;-86
2022/01/21 16:52:19;;;;;;;;;;;;;;;1.67;85.06;101312.31;4984988;28;20361;-88
2022/01/21 16:54:44;;;;;;;;;;;;;;;1.33;85.30;101311.69;4984201;28;19928;-89
2022/01/21 16:57:11;;;;;;;;;;;;;;;1.21;85.12;101311.44;4984801;28;19925;-90
2022/01/21 16:59:38;;;;;;;;;;;;;;;1.13;84.72;101316.50;4990611;28;19922;-91
2022/01/21 17:02:08;;;;;;;;;;;;;;;1.08;84.67;101316.41;4979911;28;19929;-90
2022/01/21 17:04:33;;;;;;;;;;;;;;;1.04;84.45;101314.59;4982960;28;20440;-88
2022/01/21 17:06:59;;;;;;;;;;;;;;;1.00;84.15;101320.59;5006324;28;19953;-91
2022/01/21 17:09:27;;;;;;;;;;;;;;;0.99;84.04;101331.00;4983430;28;19922;-91
2022/01/21 17:11:52;;;;;;;;;;;;;;;0.98;83.99;101331.88;4983245;28;19926;-91
2022/01/21 17:14:18;;;;;;;;;;;;;;;1.00;84.06;101333.66;4983787;28;19928;-90
2022/01/21 17:16:45;;;;;;;;;;;;;;;1.02;84.15;101331.06;4984219;28;20017;-92
2022/01/21 17:19:13;;;;;;;;;;;;;;;0.96;84.04;101329.22;4984751;28;19926;-90
2022/01/21 17:21:41;;;;;;;;;;;;;;;0.98;83.77;101332.75;4982381;28;19923;-91
2022/01/21 17:24:09;;;;;;;;;;;;;;;0.93;83.75;101330.91;4983925;28;19922;-91
2022/01/21 17:26:42;;;;;;;;;;;;;;;0.88;83.70;101334.28;4984961;28;20035;-91
2022/01/21 17:29:08;;;;;;;;;;;;;;;0.89;83.58;101330.84;4980554;28;20015;-90
2022/01/21 17:31:33;;;;;;;;;;;;;;;0.87;83.38;101327.28;4982756;28;19925;-90
2022/01/21 17:33:59;;;;;;;;;;;;;;;0.89;83.56;101333.44;4982430;28;19926;-91
2022/01/21 17:36:26;;;;;;;;;;;;;;;0.82;83.38;101330.66;4982628;28;19918;-90
2022/01/21 17:38:51;;;;;;;;;;;;;;;0.85;83.29;101329.00;5005785;28;19922;-90
2022/01/21 17:41:19;;;;;;;;;;;;;;;0.86;83.21;101320.34;4982694;28;19922;-90
2022/01/21 17:43:44;;;;;;;;;;;;;;;0.80;83.02;101325.41;4981306;28;19926;-90
2022/01/21 17:46:11;;;;;;;;;;;;;;;0.81;83.06;101331.50;4984118;28;19925;-91
2022/01/21 17:48:37;;;;;;;;;;;;;;;0.76;83.07;101320.97;4983036;28;19922;-91
2022/01/21 17:51:07;;;;;;;;;;;;;;;0.81;82.94;101315.84;4982809;28;19918;-90
2022/01/21 17:53:32;;;;;;;;;;;;;;;0.82;83.06;101323.72;4983089;28;20387;-89
2022/01/21 17:55:58;;;;;;;;;;;;;;;0.85;83.00;101320.28;4984422;28;19921;-92
2022/01/21 17:58:23;;;;;;;;;;;;;;;0.82;83.00;101323.72;4980130;28;20306;-90
2022/01/21 18:00:49;;;;;;;;;;;;;;;0.77;82.96;101329.69;4981470;28;19948;-91
2022/01/21 18:03:14;;;;;;;;;;;;;;;0.79;82.81;101325.38;4979548;28;19922;-90
2022/01/21 18:05:40;;;;;;;;;;;;;;;0.86;82.66;101332.47;4982618;28;19933;-89
2022/01/21 18:08:05;;;;;;;;;;;;;;;0.79;82.45;101334.06;4982937;28;19929;-92
2022/01/21 18:10:44;;;;;;;;;;;;;;;0.75;82.54;101329.66;4982151;28;19918;-90
2022/01/21 18:13:17;;;;;;;;;;;;;;;0.78;82.45;101332.31;4982197;28;19937;-89
2022/01/21 18:15:43;;;;;;;;;;;;;;;0.76;82.61;101328.78;4982073;28;20496;-90
2022/01/21 18:18:10;;;;;;;;;;;;;;;0.79;82.35;101328.84;4982424;28;20020;-91
2022/01/21 18:20:35;;;;;;;;;;;;;;;0.77;82.28;101330.56;4982577;28;19917;-92
2022/01/21 18:23:01;;;;;;;;;;;;;;;0.76;82.21;101339.22;4997059;28;19928;-89
2022/01/21 18:25:28;;;;;;;;;;;;;;;0.77;82.32;101332.31;4983244;28;20406;-90
2022/01/21 18:28:01;;;;;;;;;;;;;;;0.79;82.11;101333.22;5006570;28;19930;-90
2022/01/21 18:30:26;;;;;;;;;;;;;;;0.77;81.99;101338.38;4980756;28;19932;-91
2022/01/21 18:32:52;;;;;;;;;;;;;;;0.80;82.16;101341.06;4981431;28;20328;-90
2022/01/21 18:35:17;;;;;;;;;;;;;;;0.80;82.12;101346.28;4980731;28;20814;-90
2022/01/21 18:37:43;;;;;;;;;;;;;;;0.77;82.16;101340.13;4996880;28;19922;-91
2022/01/21 18:40:09;;;;;;;;;;;;;;;0.78;82.15;101337.53;4980162;28;20029;-91
2022/01/21 18:42:38;;;;;;;;;;;;;;;0.75;81.96;101337.50;4981647;28;19969;-89
2022/01/21 18:45:32;;;;;;;;;;;;;;;0.77;81.79;101330.56;4982490;28;20013;-91
2022/01/21 18:47:51;;;;;;;;;;;;;;;0.76;81.60;101334.00;4981589;28;19958;-89
2022/01/21 18:50:17;;;;;;;;;;;;;;;0.73;81.63;101328.72;4965135;28;20390;-91
2022/01/21 18:52:44;;;;;;;;;;;;;;;0.78;81.57;101331.44;4965206;28;19922;-90
2022/01/21 18:55:10;;;;;;;;;;;;;;;0.78;81.32;101327.09;4966411;28;20485;-90
2022/01/21 18:57:36;;;;;;;;;;;;;;;0.75;81.30;101333.97;4984255;28;19957;-90
2022/01/21 19:00:06;;;;;;;;;;;;;;;0.73;81.23;101326.13;4963061;28;20079;-90
2022/01/21 19:02:35;;;;;;;;;;;;;;;0.74;81.02;101334.84;4964760;28;19922;-90
2022/01/21 19:05:05;;;;;;;;;;;;;;;0.76;80.98;101339.22;4967068;28;19936;-89
2022/01/21 19:07:30;;;;;;;;;;;;;;;0.69;81.03;101334.75;4981827;28;19921;-90
2022/01/21 19:09:56;;;;;;;;;;;;;;;0.74;80.79;101338.31;4982894;28;19928;-90
2022/01/21 19:12:22;;;;;;;;;;;;;;;0.75;80.74;101347.94;4965275;28;19922;-92
2022/01/21 19:14:47;;;;;;;;;;;;;;;0.75;80.70;101339.19;4962104;28;19983;-90
2022/01/21 19:17:15;;;;;;;;;;;;;;;0.79;80.79;101341.03;4964579;28;20393;-89
2022/01/21 19:19:41;;;;;;;;;;;;;;;0.77;80.71;101341.00;4981601;28;20373;-91
2022/01/21 19:22:07;;;;;;;;;;;;;;;0.77;80.78;101338.38;4981851;28;19929;-90
2022/01/21 19:24:41;;;;;;;;;;;;;;;0.78;80.87;101342.75;4964401;28;19957;-90
2022/01/21 19:27:07;;;;;;;;;;;;;;;0.85;80.82;101346.41;4964759;28;20380;-90
2022/01/21 19:29:34;;;;;;;;;;;;;;;0.76;80.38;101338.34;4981364;28;19922;-91
2022/01/21 19:32:00;;;;;;;;;;;;;;;0.80;80.30;101342.78;4963084;28;19926;-92
2022/01/21 19:34:25;;;;;;;;;;;;;;;0.82;80.25;101346.31;4964822;28;19945;-92
2022/01/21 19:36:50;;;;;;;;;;;;;;;0.81;80.17;101355.00;4979457;28;19921;-91
2022/01/21 19:39:23;;;;;;;;;;;;;;;0.85;79.99;101355.09;4963196;28;19964;-90
2022/01/21 19:41:49;;;;;;;;;;;;;;;0.82;79.83;101362.84;4979705;28;19922;-91
2022/01/21 19:44:15;;;;;;;;;;;;;;;0.83;79.87;101362.03;4979440;28;19968;-90
2022/01/21 19:46:41;;;;;;;;;;;;;;;0.86;79.76;101367.31;4970437;28;20015;-90
2022/01/21 19:49:07;;;;;;;;;;;;;;;0.83;79.70;101364.63;4963493;28;19937;-91
2022/01/21 19:51:33;;;;;;;;;;;;;;;0.79;79.56;101365.41;4980812;28;19926;-90
2022/01/21 19:53:58;;;;;;;;;;;;;;;0.83;79.46;101366.34;4963318;28;19945;-89
2022/01/21 19:56:35;;;;;;;;;;;;;;;;;;;;;
2022/01/21 19:59:10;;;;;;;;;;;;;;;0.84;79.47;101362.88;4980578;28;20296;-89